createdAt,value
2019-02-11T00:01:49.349Z,98378.89
2019-02-11T00:04:21.608Z,98384.45
2019-02-11T00:06:53.736Z,98383.22
2019-02-11T00:09:25.979Z,98392.53
2019-02-11T00:11:58.106Z,98402.86
2019-02-11T00:14:30.348Z,98405.61
2019-02-11T00:17:02.546Z,98399.24
2019-02-11T00:19:35.890Z,98406.20
2019-02-11T00:22:08.169Z,98402.07
2019-02-11T00:24:40.351Z,98404.81
2019-02-11T00:27:12.485Z,98400.69
2019-02-11T00:29:44.688Z,98400.92
2019-02-11T00:32:16.895Z,98404.25
2019-02-11T00:34:49.038Z,98401.02
2019-02-11T00:37:21.192Z,98409.78
2019-02-11T00:39:53.389Z,98409.14
2019-02-11T00:42:25.564Z,98408.54
2019-02-11T00:44:57.831Z,98413.08
2019-02-11T00:47:30.054Z,98412.71
2019-02-11T00:50:02.245Z,98413.43
2019-02-11T00:52:34.473Z,98412.75
2019-02-11T00:55:06.858Z,98422.61
2019-02-11T00:57:39.016Z,98424.36
2019-02-11T01:00:13.708Z,98425.74
2019-02-11T01:02:45.907Z,98437.03
2019-02-11T01:05:18.038Z,98432.38
2019-02-11T01:07:50.132Z,98434.17
2019-02-11T01:10:22.259Z,98443.52
2019-02-11T01:12:54.405Z,98448.25
2019-02-11T01:15:26.590Z,98451.54
2019-02-11T01:17:58.731Z,98456.30
2019-02-11T01:20:30.928Z,98448.67
2019-02-11T01:23:03.160Z,98456.23
2019-02-11T01:25:35.293Z,98460.17
2019-02-11T01:28:07.557Z,98463.72
2019-02-11T01:30:39.701Z,98469.87
2019-02-11T01:33:12.068Z,98473.17
2019-02-11T01:35:44.191Z,98468.70
2019-02-11T01:38:16.335Z,98471.20
2019-02-11T01:40:48.537Z,98473.80
2019-02-11T01:43:20.679Z,98486.21
2019-02-11T01:45:52.883Z,98480.33
2019-02-11T01:48:25.109Z,98489.02
2019-02-11T01:50:57.242Z,98496.49
2019-02-11T01:53:29.402Z,98492.91
2019-02-11T01:56:01.530Z,98500.23
2019-02-11T01:58:33.685Z,98507.70
2019-02-11T02:01:05.844Z,98501.81
2019-02-11T02:03:39.063Z,98511.15
2019-02-11T02:06:11.392Z,98515.92
2019-02-11T02:08:43.540Z,98517.83
2019-02-11T02:11:15.663Z,98521.28
2019-02-11T02:13:47.818Z,98531.78
2019-02-11T02:16:19.948Z,98534.84
2019-02-11T02:18:52.089Z,98542.67
2019-02-11T02:21:24.230Z,98540.31
2019-02-11T02:23:56.384Z,98551.77
2019-02-11T02:26:28.744Z,98550.17
2019-02-11T02:29:01.036Z,98551.13
2019-02-11T02:31:33.181Z,98560.09
2019-02-11T02:34:05.363Z,98558.41
2019-02-11T02:36:37.487Z,98558.09
2019-02-11T02:39:09.644Z,98578.91
2019-02-11T02:41:41.934Z,98578.55
2019-02-11T02:44:14.092Z,98585.28
2019-02-11T02:46:46.376Z,98591.01
2019-02-11T02:49:18.533Z,98595.77
2019-02-11T02:51:50.739Z,98603.66
2019-02-11T02:54:22.926Z,98596.82
2019-02-11T02:56:55.053Z,98620.27
2019-02-11T02:59:27.284Z,98620.75
2019-02-11T03:01:59.469Z,98626.14
2019-02-11T03:04:32.612Z,98629.44
2019-02-11T03:07:04.746Z,98636.27
2019-02-11T03:09:37.055Z,98638.50
2019-02-11T03:12:09.195Z,98647.52
2019-02-11T03:14:41.423Z,98651.64
2019-02-11T03:17:13.547Z,98653.29
2019-02-11T03:19:45.853Z,98662.89
2019-02-11T03:22:17.980Z,98664.63
2019-02-11T03:24:50.222Z,98670.02
2019-02-11T03:27:22.346Z,98675.44
2019-02-11T03:29:54.644Z,98677.52
2019-02-11T03:32:26.776Z,98686.83
2019-02-11T03:34:59.007Z,98693.84
2019-02-11T03:37:31.134Z,98687.14
2019-02-11T03:40:03.390Z,98699.77
2019-02-11T03:42:35.549Z,98707.72
2019-02-11T03:45:09.394Z,98709.63
2019-02-11T03:47:41.608Z,98719.33
2019-02-11T03:50:13.808Z,98731.83
2019-02-11T03:52:46.007Z,98739.53
2019-02-11T03:55:18.246Z,98746.94
2019-02-11T03:57:50.448Z,98756.80
2019-02-11T04:00:22.679Z,98762.36
2019-02-11T04:02:54.828Z,98766.33
2019-02-11T04:05:26.990Z,98774.28
2019-02-11T04:07:59.154Z,98773.41
2019-02-11T04:10:31.549Z,98780.23
2019-02-11T04:13:03.757Z,98782.56
2019-02-11T04:15:35.998Z,98794.28
2019-02-11T04:18:08.219Z,98797.88
2019-02-11T04:20:40.649Z,98811.66
2019-02-11T04:23:25.919Z,98825.07
2019-02-11T04:25:58.179Z,98830.73
2019-02-11T04:28:30.377Z,98834.88
2019-02-11T04:31:02.522Z,98848.39
2019-02-11T04:33:34.727Z,98852.46
2019-02-11T04:36:06.814Z,98855.74
2019-02-11T04:38:39.091Z,98865.44
2019-02-11T04:41:11.311Z,98865.78
2019-02-11T04:43:43.429Z,98867.63
2019-02-11T04:46:15.657Z,98874.67
2019-02-11T04:48:47.805Z,98879.53
2019-02-11T04:51:20.208Z,98886.02
2019-02-11T04:53:52.419Z,98892.05
2019-02-11T04:56:24.789Z,98895.19
2019-02-11T04:58:56.933Z,98898.03
2019-02-11T05:01:29.117Z,98907.84
2019-02-11T05:04:01.325Z,98911.13
2019-02-11T05:06:33.726Z,98913.25
2019-02-11T05:09:07.397Z,98911.59
2019-02-11T05:11:39.753Z,98917.09
2019-02-11T05:14:12.138Z,98925.42
2019-02-11T05:16:44.472Z,98927.42
2019-02-11T05:19:16.753Z,98931.24
2019-02-11T05:21:48.912Z,98928.22
2019-02-11T05:24:21.121Z,98925.69
2019-02-11T05:26:53.358Z,98938.02
2019-02-11T05:29:25.504Z,98946.12
2019-02-11T05:31:57.682Z,98947.42
2019-02-11T05:34:29.936Z,98956.10
2019-02-11T05:37:02.109Z,98962.03
2019-02-11T05:39:34.326Z,98969.56
2019-02-11T05:42:06.480Z,98965.41
2019-02-11T05:44:38.752Z,98964.73
2019-02-11T05:47:10.910Z,98969.64
2019-02-11T05:49:43.145Z,98975.74
2019-02-11T05:52:15.406Z,98976.27
2019-02-11T05:54:47.582Z,98977.75
2019-02-11T05:57:19.816Z,98980.44
2019-02-11T05:59:51.977Z,98983.52
2019-02-11T06:02:24.249Z,98992.73
2019-02-11T06:04:56.314Z,98991.78
2019-02-11T06:07:28.551Z,99001.30
2019-02-11T06:10:00.836Z,99009.73
2019-02-11T06:12:32.995Z,99017.04
2019-02-11T06:15:05.490Z,99017.53
2019-02-11T06:17:37.641Z,99027.90
2019-02-11T06:20:10.041Z,99035.27
2019-02-11T06:22:42.322Z,99033.66
2019-02-11T06:25:14.681Z,99040.52
2019-02-11T06:27:46.908Z,99034.10
2019-02-11T06:30:19.245Z,99044.67
2019-02-11T06:32:51.469Z,99047.32
2019-02-11T06:35:23.668Z,99050.80
2019-02-11T06:37:55.834Z,99059.95
2019-02-11T06:40:27.974Z,99067.29
2019-02-11T06:43:00.216Z,99073.78
2019-02-11T06:45:32.437Z,99085.48
2019-02-11T06:48:04.595Z,99085.80
2019-02-11T06:50:36.798Z,99094.38
2019-02-11T06:53:09.040Z,99096.47
2019-02-11T06:55:41.230Z,99106.95
2019-02-11T06:58:13.490Z,99115.31
2019-02-11T07:00:45.727Z,99120.62
2019-02-11T07:03:17.921Z,99128.17
2019-02-11T07:05:50.069Z,99132.42
2019-02-11T07:08:22.217Z,99136.97
2019-02-11T07:10:55.874Z,99151.63
2019-02-11T07:13:28.241Z,99160.53
2019-02-11T07:16:00.413Z,99165.41
2019-02-11T07:18:32.640Z,99173.19
2019-02-11T07:21:04.884Z,99185.36
2019-02-11T07:23:37.113Z,99187.31
2019-02-11T07:26:09.333Z,99195.64
2019-02-11T07:28:41.482Z,99199.99
2019-02-11T07:31:13.637Z,99205.08
2019-02-11T07:33:45.814Z,99226.86
2019-02-11T07:36:18.253Z,99218.42
2019-02-11T07:38:50.492Z,99235.48
2019-02-11T07:41:27.416Z,99242.95
2019-02-11T07:44:14.558Z,99250.50
2019-02-11T07:46:51.207Z,99249.73
2019-02-11T07:49:23.500Z,99256.32
2019-02-11T07:51:55.708Z,99262.34
2019-02-11T07:54:27.980Z,99266.89
2019-02-11T07:57:00.245Z,99270.17
2019-02-11T07:59:32.640Z,99280.62
2019-02-11T08:02:05.073Z,99281.43
2019-02-11T08:04:37.421Z,99283.06
2019-02-11T08:07:09.557Z,99284.61
2019-02-11T08:09:41.850Z,99292.47
2019-02-11T08:12:14.057Z,99294.20
2019-02-11T08:14:46.297Z,99296.05
2019-02-11T08:17:18.436Z,99310.05
2019-02-11T08:19:50.624Z,99315.72
2019-02-11T08:22:22.797Z,99315.65
2019-02-11T08:24:55.119Z,99325.98
2019-02-11T08:27:27.325Z,99332.84
2019-02-11T08:29:59.582Z,99340.80
2019-02-11T08:32:31.709Z,99344.07
2019-02-11T08:35:03.881Z,99352.34
2019-02-11T08:37:36.093Z,99349.55
2019-02-11T08:40:08.449Z,99349.17
2019-02-11T08:42:40.573Z,99361.09
2019-02-11T08:45:12.899Z,99365.23
2019-02-11T08:47:45.164Z,99370.69
2019-02-11T08:50:17.452Z,99371.66
2019-02-11T08:52:49.581Z,99386.41
2019-02-11T08:55:21.744Z,99387.60
2019-02-11T08:57:53.917Z,99394.70
2019-02-11T09:00:26.148Z,99405.75
2019-02-11T09:02:58.312Z,99405.62
2019-02-11T09:05:30.605Z,99407.56
2019-02-11T09:08:02.943Z,99418.39
2019-02-11T09:10:35.117Z,99426.88
2019-02-11T09:13:07.317Z,99429.10
2019-02-11T09:15:39.424Z,99432.75
2019-02-11T09:18:11.558Z,99438.81
2019-02-11T09:20:43.718Z,99441.38
2019-02-11T09:23:15.844Z,99446.36
2019-02-11T09:25:48.159Z,99446.68
2019-02-11T09:28:20.299Z,99451.23
2019-02-11T09:30:52.514Z,99459.92
2019-02-11T09:33:24.653Z,99465.33
2019-02-11T09:35:56.912Z,99468.53
2019-02-11T09:38:29.123Z,99474.32
2019-02-11T09:41:01.369Z,99476.72
2019-02-11T09:43:33.700Z,99483.80
2019-02-11T09:46:06.034Z,99489.98
2019-02-11T09:48:38.172Z,99498.81
2019-02-11T09:51:11.547Z,99498.80
2019-02-11T09:53:43.696Z,99500.55
2019-02-11T09:56:15.862Z,99509.05
2019-02-11T09:58:48.058Z,99518.39
2019-02-11T10:01:20.335Z,99526.06
2019-02-11T10:03:52.476Z,99529.04
2019-02-11T10:06:24.790Z,99533.58
2019-02-11T10:08:56.849Z,99547.05
2019-02-11T10:11:29.082Z,99556.13
2019-02-11T10:14:01.220Z,99552.64
2019-02-11T10:16:35.439Z,99566.72
2019-02-11T10:19:08.647Z,99565.82
2019-02-11T10:21:40.875Z,99576.54
2019-02-11T10:24:13.092Z,99576.59
2019-02-11T10:26:47.182Z,99582.11
2019-02-11T10:29:19.584Z,99584.56
2019-02-11T10:31:52.228Z,99590.77
2019-02-11T10:34:25.260Z,99591.03
2019-02-11T10:36:57.507Z,99597.35
2019-02-11T10:39:29.631Z,99596.09
2019-02-11T10:42:01.924Z,99595.23
2019-02-11T10:44:34.137Z,99595.23
2019-02-11T10:47:07.230Z,99600.52
2019-02-11T10:49:40.439Z,99598.34
2019-02-11T10:52:12.600Z,99613.33
2019-02-11T10:54:44.728Z,99611.20
2019-02-11T10:57:16.893Z,99605.53
2019-02-11T10:59:49.118Z,99605.69
2019-02-11T11:02:21.307Z,99613.23
2019-02-11T11:04:53.527Z,99612.52
2019-02-11T11:07:25.772Z,99615.95
2019-02-11T11:09:57.979Z,99622.23
2019-02-11T11:12:30.258Z,99624.48
2019-02-11T11:15:02.614Z,99625.53
2019-02-11T11:17:35.949Z,99623.34
2019-02-11T11:20:09.086Z,99625.11
2019-02-11T11:22:41.384Z,99625.45
2019-02-11T11:25:14.187Z,99625.55
2019-02-11T11:27:46.432Z,99619.53
2019-02-11T11:30:18.666Z,99632.02
2019-02-11T11:32:50.838Z,99630.63
2019-02-11T11:35:23.118Z,99634.84
2019-02-11T11:37:55.423Z,99630.81
2019-02-11T11:40:27.629Z,99635.42
2019-02-11T11:42:59.804Z,99645.23
2019-02-11T11:45:32.159Z,99648.89
2019-02-11T11:48:04.390Z,99646.83
2019-02-11T11:50:36.584Z,99643.89
2019-02-11T11:53:08.740Z,99647.95
2019-02-11T11:55:43.022Z,99651.69
2019-02-11T11:58:16.858Z,99653.75
2019-02-11T12:00:49.162Z,99650.83
2019-02-11T12:03:21.583Z,99659.91
2019-02-11T12:05:53.870Z,99660.16
2019-02-11T12:08:26.104Z,99658.80
2019-02-11T12:10:58.246Z,99662.96
2019-02-11T12:13:32.584Z,99665.41
2019-02-11T12:16:04.736Z,99669.78
2019-02-11T12:18:36.993Z,99668.19
2019-02-11T12:21:11.312Z,99672.81
2019-02-11T12:23:44.762Z,99671.92
2019-02-11T12:26:20.960Z,99690.36
2019-02-11T12:28:51.110Z,99690.11
2019-02-11T12:31:24.048Z,99698.61
2019-02-11T12:33:57.223Z,99698.88
2019-02-11T12:36:29.717Z,99705.91
2019-02-11T12:39:01.948Z,99701.47
2019-02-11T12:41:35.690Z,99710.14
2019-02-11T12:44:07.876Z,99706.70
2019-02-11T12:46:40.086Z,99708.27
2019-02-11T12:49:12.326Z,99710.49
2019-02-11T12:51:44.538Z,99702.73
2019-02-11T12:54:16.873Z,99705.37
2019-02-11T12:56:49.005Z,99705.13
2019-02-11T12:59:22.814Z,99709.55
2019-02-11T13:01:54.973Z,99715.36
2019-02-11T13:04:27.302Z,99720.36
2019-02-11T13:06:59.448Z,99721.08
2019-02-11T13:09:31.609Z,99732.80
2019-02-11T13:12:07.251Z,99734.36
2019-02-11T13:14:40.045Z,99738.70
2019-02-11T13:17:15.596Z,99740.66
2019-02-11T13:19:46.321Z,99742.88
2019-02-11T13:22:18.447Z,99739.70
2019-02-11T13:24:50.877Z,99743.20
2019-02-11T13:27:23.088Z,99749.44
2019-02-11T13:29:55.155Z,99751.66
2019-02-11T13:32:27.378Z,99749.48
2019-02-11T13:35:00.597Z,99759.39
2019-02-11T13:37:32.844Z,99761.88
2019-02-11T13:40:05.328Z,99758.64
2019-02-11T13:42:37.526Z,99771.19
2019-02-11T13:45:13.720Z,99771.70
2019-02-11T13:47:54.671Z,99773.67
2019-02-11T13:50:22.918Z,99778.28
2019-02-11T13:52:55.345Z,99784.97
2019-02-11T13:55:30.370Z,99783.16
2019-02-11T13:58:01.588Z,99787.15
2019-02-11T14:00:35.244Z,99801.55
2019-02-11T14:03:08.116Z,99801.16
2019-02-11T14:05:40.195Z,99808.31
2019-02-11T14:08:12.510Z,99809.28
2019-02-11T14:10:44.791Z,99814.91
2019-02-11T14:13:16.969Z,99817.47
2019-02-11T14:15:49.190Z,99819.00
2019-02-11T14:18:21.314Z,99825.89
2019-02-11T14:20:53.472Z,99822.25
2019-02-11T14:23:25.707Z,99831.95
2019-02-11T14:25:57.849Z,99844.83
2019-02-11T14:28:29.976Z,99848.88
2019-02-11T14:31:02.324Z,99844.56
2019-02-11T14:33:34.478Z,99861.70
2019-02-11T14:36:06.815Z,99854.92
2019-02-11T14:38:39.172Z,99853.90
2019-02-11T14:41:11.401Z,99869.36
2019-02-11T14:43:43.672Z,99879.31
2019-02-11T14:46:15.959Z,99890.06
2019-02-11T14:48:48.153Z,99896.53
2019-02-11T14:51:20.406Z,99900.10
2019-02-11T14:53:52.796Z,99900.91
2019-02-11T14:56:25.098Z,99903.48
2019-02-11T14:58:57.258Z,99908.95
2019-02-11T15:01:29.609Z,99912.06
2019-02-11T15:04:01.849Z,99920.58
2019-02-11T15:06:34.021Z,99928.27
2019-02-11T15:09:06.641Z,99931.61
2019-02-11T15:11:39.315Z,99933.45
2019-02-11T15:14:11.593Z,99931.30
2019-02-11T15:16:43.842Z,99933.37
2019-02-11T15:19:16.198Z,99937.36
2019-02-11T15:21:48.428Z,99941.16
2019-02-11T15:24:20.642Z,99943.33
2019-02-11T15:26:53.266Z,99940.56
2019-02-11T15:29:25.523Z,99941.47
2019-02-11T15:31:57.695Z,99946.35
2019-02-11T15:34:29.974Z,99946.12
2019-02-11T15:37:02.362Z,99950.05
2019-02-11T15:39:34.551Z,99958.59
2019-02-11T15:42:06.678Z,99965.64
2019-02-11T15:44:38.904Z,99963.99
2019-02-11T15:47:11.245Z,99970.20
2019-02-11T15:49:43.600Z,99979.13
2019-02-11T15:52:15.967Z,99985.25
2019-02-11T15:54:48.338Z,99987.02
2019-02-11T15:57:20.427Z,99987.82
2019-02-11T15:59:52.581Z,99986.63
2019-02-11T16:02:24.974Z,99992.29
2019-02-11T16:05:02.422Z,99999.83
2019-02-11T16:07:31.143Z,100006.69
2019-02-11T16:10:03.479Z,100012.05
2019-02-11T16:12:35.782Z,100020.31
2019-02-11T16:15:08.158Z,100024.20
2019-02-11T16:17:40.250Z,100033.36
2019-02-11T16:20:14.395Z,100039.03
2019-02-11T16:22:46.576Z,100040.63
2019-02-11T16:25:18.757Z,100043.46
2019-02-11T16:27:50.907Z,100045.77
2019-02-11T16:30:23.064Z,100048.03
2019-02-11T16:32:55.176Z,100050.19
2019-02-11T16:35:27.449Z,100054.48
2019-02-11T16:37:59.578Z,100048.88
2019-02-11T16:40:31.838Z,100053.37
2019-02-11T16:43:03.975Z,100050.58
2019-02-11T16:45:36.221Z,100057.80
2019-02-11T16:48:08.476Z,100062.41
2019-02-11T16:50:40.809Z,100063.63
2019-02-11T16:53:13.046Z,100065.05
2019-02-11T16:55:45.357Z,100071.80
2019-02-11T16:58:17.606Z,100080.19
2019-02-11T17:00:49.792Z,100088.88
2019-02-11T17:03:22.037Z,100102.31
2019-02-11T17:05:54.192Z,100109.85
2019-02-11T17:08:26.479Z,100113.78
2019-02-11T17:10:58.644Z,100118.95
2019-02-11T17:13:30.934Z,100125.86
2019-02-11T17:16:03.168Z,100135.97
2019-02-11T17:18:35.393Z,100143.88
2019-02-11T17:21:07.605Z,100145.20
2019-02-11T17:23:39.815Z,100160.41
2019-02-11T17:26:11.987Z,100162.72
2019-02-11T17:28:44.277Z,100168.44
2019-02-11T17:31:18.962Z,100172.27
2019-02-11T17:33:51.094Z,100181.83
2019-02-11T17:36:23.360Z,100186.36
2019-02-11T17:38:55.662Z,100202.37
2019-02-11T17:41:27.822Z,100205.08
2019-02-11T17:44:03.101Z,100216.97
2019-02-11T17:46:35.424Z,100229.89
2019-02-11T17:49:07.564Z,100234.09
2019-02-11T17:51:39.734Z,100234.66
2019-02-11T17:54:11.946Z,100236.41
2019-02-11T17:56:44.108Z,100249.21
2019-02-11T17:59:16.248Z,100255.51
2019-02-11T18:01:48.572Z,100257.55
2019-02-11T18:04:20.725Z,100262.42
2019-02-11T18:06:52.885Z,100270.52
2019-02-11T18:09:28.061Z,100270.20
2019-02-11T18:12:00.233Z,100272.43
2019-02-11T18:14:32.608Z,100276.34
2019-02-11T18:17:06.920Z,100283.52
2019-02-11T18:19:39.167Z,100286.44
2019-02-11T18:22:11.469Z,100296.23
2019-02-11T18:24:43.673Z,100303.96
2019-02-11T18:27:15.930Z,100305.23
2019-02-11T18:29:48.145Z,100323.16
2019-02-11T18:32:20.263Z,100328.66
2019-02-11T18:34:52.654Z,100335.61
2019-02-11T18:37:24.964Z,100342.30
2019-02-11T18:39:57.283Z,100335.30
2019-02-11T18:42:29.514Z,100340.71
2019-02-11T18:45:05.559Z,100346.05
2019-02-11T18:47:37.803Z,100358.16
2019-02-11T18:50:13.165Z,100366.91
2019-02-11T18:52:45.548Z,100369.59
2019-02-11T18:55:18.050Z,100373.83
2019-02-11T18:57:50.529Z,100381.80
2019-02-11T19:00:22.884Z,100383.42
2019-02-11T19:02:55.755Z,100387.40
2019-02-11T19:05:28.078Z,100385.11
2019-02-11T19:08:00.256Z,100386.91
2019-02-11T19:10:32.397Z,100401.06
2019-02-11T19:13:04.608Z,100406.45
2019-02-11T19:15:36.744Z,100411.94
2019-02-11T19:18:10.048Z,100420.34
2019-02-11T19:20:42.247Z,100419.47
2019-02-11T19:23:14.479Z,100428.80
2019-02-11T19:25:46.650Z,100434.12
2019-02-11T19:28:18.807Z,100432.89
2019-02-11T19:30:50.948Z,100423.28
2019-02-11T19:33:23.110Z,100434.80
2019-02-11T19:35:55.315Z,100436.17
2019-02-11T19:38:27.480Z,100438.67
2019-02-11T19:40:59.694Z,100443.45
2019-02-11T19:43:32.995Z,100433.75
2019-02-11T19:46:05.284Z,100433.53
2019-02-11T19:48:37.560Z,100439.83
2019-02-11T19:51:09.700Z,100443.69
2019-02-11T19:53:41.971Z,100455.07
2019-02-11T19:56:14.117Z,100453.06
2019-02-11T19:58:46.408Z,100451.38
2019-02-11T20:01:18.547Z,100459.98
2019-02-11T20:03:50.837Z,100463.64
2019-02-11T20:06:22.989Z,100466.41
2019-02-11T20:08:55.159Z,100463.80
2019-02-11T20:11:27.549Z,100464.13
2019-02-11T20:13:59.717Z,100472.59
2019-02-11T20:16:31.936Z,100477.48
2019-02-11T20:19:04.562Z,100488.34
2019-02-11T20:21:36.710Z,100480.85
2019-02-11T20:24:08.892Z,100490.53
2019-02-11T20:26:41.136Z,100493.86
2019-02-11T20:29:13.308Z,100498.00
2019-02-11T20:31:46.497Z,100501.77
2019-02-11T20:34:18.649Z,100504.60
2019-02-11T20:36:50.784Z,100511.09
2019-02-11T20:39:22.963Z,100507.63
2019-02-11T20:41:55.099Z,100506.43
2019-02-11T20:44:27.268Z,100513.14
2019-02-11T20:46:59.554Z,100519.48
2019-02-11T20:49:31.779Z,100514.40
2019-02-11T20:52:03.936Z,100513.38
2019-02-11T20:54:36.148Z,100514.42
2019-02-11T20:57:08.381Z,100524.70
2019-02-11T20:59:40.614Z,100520.62
2019-02-11T21:02:12.813Z,100513.06
2019-02-11T21:04:44.962Z,100514.31
2019-02-11T21:07:17.199Z,100511.47
2019-02-11T21:09:49.422Z,100514.45
2019-02-11T21:12:21.656Z,100502.74
2019-02-11T21:14:53.794Z,100503.49
2019-02-11T21:17:26.030Z,100511.28
2019-02-11T21:19:58.319Z,100512.92
2019-02-11T21:22:30.548Z,100509.91
2019-02-11T21:25:02.847Z,100510.06
2019-02-11T21:27:35.343Z,100500.69
2019-02-11T21:30:09.328Z,100497.67
2019-02-11T21:32:41.496Z,100496.63
2019-02-11T21:35:13.768Z,100503.78
2019-02-11T21:37:45.974Z,100501.67
2019-02-11T21:40:18.133Z,100508.43
2019-02-11T21:42:50.312Z,100523.69
2019-02-11T21:45:22.663Z,100529.45
2019-02-11T21:47:55.001Z,100528.41
2019-02-11T21:50:27.224Z,100529.89
2019-02-11T21:52:59.376Z,100530.89
2019-02-11T21:55:31.609Z,100536.25
2019-02-11T21:58:03.772Z,100550.66
2019-02-11T22:00:35.892Z,100564.61
2019-02-11T22:03:08.135Z,100579.83
2019-02-11T22:05:40.267Z,100583.51
2019-02-11T22:08:12.535Z,100603.44
2019-02-11T22:10:44.667Z,100613.72
2019-02-11T22:13:16.825Z,100616.89
2019-02-11T22:15:48.950Z,100625.75
2019-02-11T22:18:21.292Z,100630.96
2019-02-11T22:20:53.419Z,100639.88
2019-02-11T22:23:25.671Z,100640.75
2019-02-11T22:25:57.949Z,100646.28
2019-02-11T22:28:30.364Z,100646.64
2019-02-11T22:31:02.501Z,100649.67
2019-02-11T22:33:34.704Z,100661.36
2019-02-11T22:36:06.954Z,100654.59
2019-02-11T22:38:39.201Z,100658.43
2019-02-11T22:41:11.485Z,100661.73
2019-02-11T22:43:43.884Z,100665.80
2019-02-11T22:46:16.126Z,100668.02
2019-02-11T22:48:48.458Z,100668.88
2019-02-11T22:51:20.697Z,100666.84
2019-02-11T22:53:52.840Z,100674.36
2019-02-11T22:56:25.076Z,100669.09
2019-02-11T22:58:57.369Z,100668.98
2019-02-11T23:01:29.730Z,100678.63
2019-02-11T23:04:02.019Z,100681.64
2019-02-11T23:06:34.191Z,100674.67
2019-02-11T23:09:12.085Z,100681.55
2019-02-11T23:11:44.498Z,100686.84
2019-02-11T23:14:16.716Z,100690.55
2019-02-11T23:16:49.043Z,100694.52
2019-02-11T23:19:21.381Z,100698.65
2019-02-11T23:21:53.794Z,100703.80
2019-02-11T23:24:26.016Z,100710.03
2019-02-11T23:26:58.359Z,100716.22
2019-02-11T23:29:30.649Z,100730.81
2019-02-11T23:32:02.826Z,100748.19
2019-02-11T23:34:34.961Z,100749.60
2019-02-11T23:37:07.267Z,100747.17
2019-02-11T23:39:39.481Z,100736.91
2019-02-11T23:42:11.677Z,100728.92
2019-02-11T23:44:44.077Z,100741.69
2019-02-11T23:47:16.260Z,100748.19
2019-02-11T23:49:48.460Z,100746.52
2019-02-11T23:52:20.865Z,100751.98
2019-02-11T23:54:53.102Z,100754.11
2019-02-11T23:57:25.353Z,100756.40
2019-02-11T23:59:57.560Z,100754.76
